Morton, Texas
Current Conditions -  °F | °C
As of 5:15 PM on Tuesday 25 Nov 2014 (Local Time) from KCVN Reporting Station
Clear Clear  
Wind Chill: 54°   Ceiling: Unl
Heat Index: 54°   Visibility: 10mi
Dew Point:   Wind: 25mph
Humidity: 15%   Direction: 270°W
Pressure: 30.03"   Gusts: 31mph
Location:  33.73°N, 102.76°W
Report Text: KCVN 252315Z 27022G27KT 10SM CLR 12/M14 A3003 RMK AO1
Loading
Personal Weather Stations






























Interactive Weather Map New forecast layout! Learn more

10-Day Weather Forecast

Advertisements
Track Severe Weather on mobile